Airfield :
LOGIN :

Register | Disclaimer

   EN    FR    IT 

 










Legend :    VFR   Marginal VFR   IFR   Intensive IFR   Very Intensive IFR
Visi :
Ceiling :
>= 8 km
>= 3000ft
5 to 8 km
1000 to 3000 ft
1500m to 5 km
500 to 1000 ft
800 to 1500m
200 to 500 ft
< 800m
< 200 ft
Symbols :   Thunderstorms  Fog  Heavy snow  Heavy precipitations  Wind > 20 kt
SIGMETs :     Misc.  Thunderstorms  Icing  Turbulence  Mountain Waves  Volcanic Ashes






- Airport Elevation : 2697 ft
- IATA code : BLJ


DABT - Batna

CURRENT METAR :
  • 111900Z 22014KT 8000 -RA FEW010 OVC020 05/03 Q1002 RERA

EXPIRED METARs :
  • 111800Z 23009KT 8000 RA FEW010 OVC020 05/03 Q1005
  • 111700Z 27010KT 6000 RA FEW010 OVC020 06/04 Q1005

TAF COR TAF DABT
Valid from the 11 at 18:00 until the 12 at 18:00 UTC


111700Z 1118/1218 27012KT 6000 FEW010 BKN020
TEMPO 1118/1212 27015G30KT 5000 -TSRA FEW030CB
PROB40
TEMPO 1121/1206 3000 TSGRRA SCT023CB



MET'MAP, your aeronautical weather chart ! - Copyright ORBIFLY December 2007 - Disclaimer

ORBIFLY MET'MAP TEAM :

Programming & Development : Alexandra Zaïnal
Concept & Development : Baudouin d'Aumeries
Co-Development & Prog : Marc-Olivier Méhu
Technical & hardware support : Manuel Goepfert

Contact : metmap@orbifly.com




SOURCES & CREDITS :

   NOAA